sensor_id;sensor_type;location;lat;lon;timestamp;pressure;altitude;pressure_sealevel;temperature;humidity
49973;BME280;65693;49.798;10.968;2023-02-17T00:00:52;98896.69;;;7.79;58.94
49973;BME280;65693;49.798;10.968;2023-02-17T00:03:19;98907.25;;;7.79;58.57
49973;BME280;65693;49.798;10.968;2023-02-17T00:05:45;98894.97;;;7.78;59.03
49973;BME280;65693;49.798;10.968;2023-02-17T00:08:11;98902.88;;;7.78;58.75
49973;BME280;65693;49.798;10.968;2023-02-17T00:10:38;98892.31;;;7.78;59.12
49973;BME280;65693;49.798;10.968;2023-02-17T00:13:04;98895.91;;;7.77;58.86
49973;BME280;65693;49.798;10.968;2023-02-17T00:15:32;98894.97;;;7.78;58.76
49973;BME280;65693;49.798;10.968;2023-02-17T00:17:59;98903.81;;;7.77;59.08
49973;BME280;65693;49.798;10.968;2023-02-17T00:20:27;98899.41;;;7.77;58.86
49973;BME280;65693;49.798;10.968;2023-02-17T00:22:53;98899.50;;;7.74;59.04
49973;BME280;65693;49.798;10.968;2023-02-17T00:25:19;98896.81;;;7.76;58.95
49973;BME280;65693;49.798;10.968;2023-02-17T00:27:46;98890.66;;;7.75;59.13
49973;BME280;65693;49.798;10.968;2023-02-17T00:30:12;98894.19;;;7.76;58.79
49973;BME280;65693;49.798;10.968;2023-02-17T00:32:40;98903.94;;;7.74;58.96
49973;BME280;65693;49.798;10.968;2023-02-17T00:35:07;98894.22;;;7.74;58.99
49973;BME280;65693;49.798;10.968;2023-02-17T00:37:33;98895.16;;;7.73;58.89
49973;BME280;65693;49.798;10.968;2023-02-17T00:40:00;98888.09;;;7.74;58.82
49973;BME280;65693;49.798;10.968;2023-02-17T00:42:26;98883.66;;;7.74;59.22
49973;BME280;65693;49.798;10.968;2023-02-17T00:44:52;98885.47;;;7.74;59.28
49973;BME280;65693;49.798;10.968;2023-02-17T00:47:19;98883.66;;;7.74;59.04
49973;BME280;65693;49.798;10.968;2023-02-17T00:49:47;98880.19;;;7.74;58.84
49973;BME280;65693;49.798;10.968;2023-02-17T00:52:13;98878.47;;;7.73;58.77
49973;BME280;65693;49.798;10.968;2023-02-17T00:54:39;98881.13;;;7.73;58.91
49973;BME280;65693;49.798;10.968;2023-02-17T00:57:06;98879.28;;;7.75;58.98
49973;BME280;65693;49.798;10.968;2023-02-17T00:59:32;98886.41;;;7.73;59.28
49973;BME280;65693;49.798;10.968;2023-02-17T01:01:58;98882.84;;;7.74;59.04
49973;BME280;65693;49.798;10.968;2023-02-17T01:04:25;98886.31;;;7.74;58.82
49973;BME280;65693;49.798;10.968;2023-02-17T01:06:53;98891.59;;;7.74;59.22
49973;BME280;65693;49.798;10.968;2023-02-17T01:09:19;98884.59;;;7.73;58.72
49973;BME280;65693;49.798;10.968;2023-02-17T01:11:46;98891.66;;;7.73;58.81
49973;BME280;65693;49.798;10.968;2023-02-17T01:14:13;98887.22;;;7.73;59.09
49973;BME280;65693;49.798;10.968;2023-02-17T01:16:42;98885.53;;;7.72;59.10
49973;BME280;65693;49.798;10.968;2023-02-17T01:19:12;98880.25;;;7.72;59.10
49973;BME280;65693;49.798;10.968;2023-02-17T01:21:39;98880.25;;;7.72;58.89
49973;BME280;65693;49.798;10.968;2023-02-17T01:24:08;98873.19;;;7.73;59.15
49973;BME280;65693;49.798;10.968;2023-02-17T01:26:35;98869.69;;;7.72;59.12
49973;BME280;65693;49.798;10.968;2023-02-17T01:29:03;98863.63;;;7.70;59.10
49973;BME280;65693;49.798;10.968;2023-02-17T01:31:30;98865.41;;;7.69;58.82
49973;BME280;65693;49.798;10.968;2023-02-17T01:33:58;98865.41;;;7.69;58.91
49973;BME280;65693;49.798;10.968;2023-02-17T01:36:26;98866.25;;;7.70;59.00
49973;BME280;65693;49.798;10.968;2023-02-17T01:38:52;98848.72;;;7.69;58.95
49973;BME280;65693;49.798;10.968;2023-02-17T01:41:22;98836.44;;;7.68;59.18
49973;BME280;65693;49.798;10.968;2023-02-17T01:44:05;98846.13;;;7.67;58.63
49973;BME280;65693;49.798;10.968;2023-02-17T01:46:33;98844.38;;;7.68;59.34
49973;BME280;65693;49.798;10.968;2023-02-17T01:49:01;98847.88;;;7.68;59.24
49973;BME280;65693;49.798;10.968;2023-02-17T01:51:31;98839.97;;;7.68;58.93
49973;BME280;65693;49.798;10.968;2023-02-17T01:54:02;98842.59;;;7.68;59.25
49973;BME280;65693;49.798;10.968;2023-02-17T01:56:34;98825.03;;;7.67;59.02
49973;BME280;65693;49.798;10.968;2023-02-17T01:59:06;98826.81;;;7.67;59.25
49973;BME280;65693;49.798;10.968;2023-02-17T02:01:35;98818.03;;;7.66;59.18
49973;BME280;65693;49.798;10.968;2023-02-17T02:04:03;98811.91;;;7.66;58.97
49973;BME280;65693;49.798;10.968;2023-02-17T02:06:32;98810.13;;;7.66;59.05
49973;BME280;65693;49.798;10.968;2023-02-17T02:09:03;98821.53;;;7.67;59.14
49973;BME280;65693;49.798;10.968;2023-02-17T02:11:30;98824.22;;;7.65;59.63
49973;BME280;65693;49.798;10.968;2023-02-17T02:13:59;98811.03;;;7.65;59.39
49973;BME280;65693;49.798;10.968;2023-02-17T02:16:28;98808.41;;;7.65;59.24
49973;BME280;65693;49.798;10.968;2023-02-17T02:19:03;98812.75;;;7.66;59.18
49973;BME280;65693;49.798;10.968;2023-02-17T02:21:52;98809.34;;;7.64;59.14
49973;BME280;65693;49.798;10.968;2023-02-17T02:24:32;98806.78;;;7.63;59.34
49973;BME280;65693;49.798;10.968;2023-02-17T02:27:15;98792.66;;;7.64;59.29
49973;BME280;65693;49.798;10.968;2023-02-17T02:29:59;98796.13;;;7.64;59.00
49973;BME280;65693;49.798;10.968;2023-02-17T02:32:42;98791.78;;;7.63;59.51
49973;BME280;65693;49.798;10.968;2023-02-17T02:35:16;98796.22;;;7.63;59.54
49973;BME280;65693;49.798;10.968;2023-02-17T02:37:47;98791.75;;;7.65;59.33
49973;BME280;65693;49.798;10.968;2023-02-17T02:40:21;98790.94;;;7.63;59.26
49973;BME280;65693;49.798;10.968;2023-02-17T02:42:49;98779.53;;;7.62;59.41
49973;BME280;65693;49.798;10.968;2023-02-17T02:45:16;98781.31;;;7.62;59.38
49973;BME280;65693;49.798;10.968;2023-02-17T02:47:47;98783.03;;;7.63;59.30
49973;BME280;65693;49.798;10.968;2023-02-17T02:50:16;98773.41;;;7.62;59.53
49973;BME280;65693;49.798;10.968;2023-02-17T02:52:57;98772.63;;;7.60;59.44
49973;BME280;65693;49.798;10.968;2023-02-17T02:55:38;98784.81;;;7.62;59.23
49973;BME280;65693;49.798;10.968;2023-02-17T02:58:16;98778.69;;;7.62;59.38
49973;BME280;65693;49.798;10.968;2023-02-17T03:00:49;98777.81;;;7.61;59.45
49973;BME280;65693;49.798;10.968;2023-02-17T03:03:22;98772.53;;;7.61;59.16
49973;BME280;65693;49.798;10.968;2023-02-17T03:05:56;98783.09;;;7.61;59.52
49973;BME280;65693;49.798;10.968;2023-02-17T03:08:27;98773.31;;;7.63;59.19
49973;BME280;65693;49.798;10.968;2023-02-17T03:10:56;98775.16;;;7.61;59.04
49973;BME280;65693;49.798;10.968;2023-02-17T03:13:23;98771.59;;;7.62;59.19
49973;BME280;65693;49.798;10.968;2023-02-17T03:15:50;98780.41;;;7.63;59.14
49973;BME280;65693;49.798;10.968;2023-02-17T03:18:16;98787.44;;;7.62;59.49
49973;BME280;65693;49.798;10.968;2023-02-17T03:20:48;98784.88;;;7.61;59.22
49973;BME280;65693;49.798;10.968;2023-02-17T03:23:16;98791.00;;;7.61;59.31
49973;BME280;65693;49.798;10.968;2023-02-17T03:25:42;98784.88;;;7.61;59.30
49973;BME280;65693;49.798;10.968;2023-02-17T03:28:09;98781.31;;;7.62;59.48
49973;BME280;65693;49.798;10.968;2023-02-17T03:30:36;98791.09;;;7.60;59.34
49973;BME280;65693;49.798;10.968;2023-02-17T03:33:02;98788.38;;;7.61;59.38
49973;BME280;65693;49.798;10.968;2023-02-17T03:35:29;98786.59;;;7.62;59.29
49973;BME280;65693;49.798;10.968;2023-02-17T03:37:57;98780.44;;;7.61;59.41
49973;BME280;65693;49.798;10.968;2023-02-17T03:40:23;98776.97;;;7.61;59.29
49973;BME280;65693;49.798;10.968;2023-02-17T03:42:50;98777.03;;;7.59;59.44
49973;BME280;65693;49.798;10.968;2023-02-17T03:45:16;98773.41;;;7.62;59.53
49973;BME280;65693;49.798;10.968;2023-02-17T03:47:42;98767.34;;;7.60;59.17
49973;BME280;65693;49.798;10.968;2023-02-17T03:50:09;98766.41;;;7.61;59.46
49973;BME280;65693;49.798;10.968;2023-02-17T03:52:36;98761.19;;;7.59;59.51
49973;BME280;65693;49.798;10.968;2023-02-17T03:55:04;98756.84;;;7.58;59.62
49973;BME280;65693;49.798;10.968;2023-02-17T03:57:31;98761.97;;;7.61;59.52
49973;BME280;65693;49.798;10.968;2023-02-17T03:59:58;98763.84;;;7.59;59.38
49973;BME280;65693;49.798;10.968;2023-02-17T04:02:25;98763.84;;;7.59;59.19
49973;BME280;65693;49.798;10.968;2023-02-17T04:04:51;98759.47;;;7.58;59.36
49973;BME280;65693;49.798;10.968;2023-02-17T04:07:18;98752.34;;;7.60;59.27
49973;BME280;65693;49.798;10.968;2023-02-17T04:09:44;98747.13;;;7.59;59.52
49973;BME280;65693;49.798;10.968;2023-02-17T04:12:12;98756.84;;;7.58;59.59
49973;BME280;65693;49.798;10.968;2023-02-17T04:14:38;98753.28;;;7.59;59.38
49973;BME280;65693;49.798;10.968;2023-02-17T04:17:05;98750.66;;;7.59;59.33
49973;BME280;65693;49.798;10.968;2023-02-17T04:19:31;98747.22;;;7.57;59.28
49973;BME280;65693;49.798;10.968;2023-02-17T04:21:57;98741.00;;;7.58;59.65
49973;BME280;65693;49.798;10.968;2023-02-17T04:24:24;98731.38;;;7.57;59.48
49973;BME280;65693;49.798;10.968;2023-02-17T04:26:50;98734.88;;;7.58;59.57
49973;BME280;65693;49.798;10.968;2023-02-17T04:29:18;98743.72;;;7.57;59.67
49973;BME280;65693;49.798;10.968;2023-02-17T04:31:44;98729.69;;;7.56;59.59
49973;BME280;65693;49.798;10.968;2023-02-17T04:34:11;98736.66;;;7.57;59.37
49973;BME280;65693;49.798;10.968;2023-02-17T04:36:37;98739.31;;;7.57;59.66
49973;BME280;65693;49.798;10.968;2023-02-17T04:39:04;98737.50;;;7.58;59.79
49973;BME280;65693;49.798;10.968;2023-02-17T04:41:30;98742.88;;;7.56;59.65
49973;BME280;65693;49.798;10.968;2023-02-17T04:43:56;98743.72;;;7.57;59.42
49973;BME280;65693;49.798;10.968;2023-02-17T04:46:24;98739.34;;;7.55;59.80
49973;BME280;65693;49.798;10.968;2023-02-17T04:48:51;98734.94;;;7.56;59.99
49973;BME280;65693;49.798;10.968;2023-02-17T04:51:17;98728.75;;;7.57;59.47
49973;BME280;65693;49.798;10.968;2023-02-17T04:53:44;98734.03;;;7.57;59.44
49973;BME280;65693;49.798;10.968;2023-02-17T04:56:10;98733.25;;;7.55;59.55
49973;BME280;65693;49.798;10.968;2023-02-17T04:58:36;98735.88;;;7.55;59.96
49973;BME280;65693;49.798;10.968;2023-02-17T05:01:03;98729.72;;;7.54;59.52
49973;BME280;65693;49.798;10.968;2023-02-17T05:03:31;98737.59;;;7.56;59.55
49973;BME280;65693;49.798;10.968;2023-02-17T05:05:57;98735.88;;;7.55;59.56
49973;BME280;65693;49.798;10.968;2023-02-17T05:08:24;98732.31;;;7.56;59.53
49973;BME280;65693;49.798;10.968;2023-02-17T05:10:50;98737.66;;;7.54;59.58
49973;BME280;65693;49.798;10.968;2023-02-17T05:13:17;98735.88;;;7.55;59.83
49973;BME280;65693;49.798;10.968;2023-02-17T05:15:44;98728.03;;;7.53;59.86
49973;BME280;65693;49.798;10.968;2023-02-17T05:18:11;98722.69;;;7.55;59.60
49973;BME280;65693;49.798;10.968;2023-02-17T05:20:40;98722.59;;;7.57;59.36
49973;BME280;65693;49.798;10.968;2023-02-17T05:23:06;98725.19;;;7.58;59.73
49973;BME280;65693;49.798;10.968;2023-02-17T05:25:33;98736.47;;;7.62;59.73
49973;BME280;65693;49.798;10.968;2023-02-17T05:27:59;98732.97;;;7.61;59.31
49973;BME280;65693;49.798;10.968;2023-02-17T05:30:26;98720.75;;;7.59;59.36
49973;BME280;65693;49.798;10.968;2023-02-17T05:32:52;98718.19;;;7.57;59.73
49973;BME280;65693;49.798;10.968;2023-02-17T05:35:19;98712.94;;;7.57;59.39
49973;BME280;65693;49.798;10.968;2023-02-17T05:37:46;98713.84;;;7.56;59.92
49973;BME280;65693;49.798;10.968;2023-02-17T05:40:13;98715.63;;;7.55;59.66
49973;BME280;65693;49.798;10.968;2023-02-17T05:42:39;98721.75;;;7.56;59.78
49973;BME280;65693;49.798;10.968;2023-02-17T05:45:06;98718.34;;;7.54;59.93
49973;BME280;65693;49.798;10.968;2023-02-17T05:47:33;98720.97;;;7.54;59.59
49973;BME280;65693;49.798;10.968;2023-02-17T05:50:00;98728.03;;;7.53;59.92
49973;BME280;65693;49.798;10.968;2023-02-17T05:52:27;98725.31;;;7.55;59.92
49973;BME280;65693;49.798;10.968;2023-02-17T05:54:54;98722.75;;;7.53;59.57
49973;BME280;65693;49.798;10.968;2023-02-17T05:57:21;98723.63;;;7.54;59.77
49973;BME280;65693;49.798;10.968;2023-02-17T05:59:47;98725.31;;;7.55;59.63
49973;BME280;65693;49.798;10.968;2023-02-17T06:02:14;98711.22;;;7.56;59.67
49973;BME280;65693;49.798;10.968;2023-02-17T06:04:40;98721.75;;;7.56;59.58
49973;BME280;65693;49.798;10.968;2023-02-17T06:07:06;98720.06;;;7.55;59.85
49973;BME280;65693;49.798;10.968;2023-02-17T06:09:33;98721.75;;;7.56;59.51
49973;BME280;65693;49.798;10.968;2023-02-17T06:12:01;98717.22;;;7.60;59.45
49973;BME280;65693;49.798;10.968;2023-02-17T06:14:27;98716.22;;;7.62;59.83
49973;BME280;65693;49.798;10.968;2023-02-17T06:16:54;98716.16;;;7.64;60.91
49973;BME280;65693;49.798;10.968;2023-02-17T06:19:21;98716.00;;;7.67;61.04
49973;BME280;65693;49.798;10.968;2023-02-17T06:21:47;98715.09;;;7.68;60.26
49973;BME280;65693;49.798;10.968;2023-02-17T06:24:14;98721.28;;;7.67;60.74
49973;BME280;65693;49.798;10.968;2023-02-17T06:26:40;98720.38;;;7.68;60.47
49973;BME280;65693;49.798;10.968;2023-02-17T06:29:08;98719.50;;;7.67;60.58
49973;BME280;65693;49.798;10.968;2023-02-17T06:31:34;98729.25;;;7.65;60.76
49973;BME280;65693;49.798;10.968;2023-02-17T06:34:01;98734.63;;;7.64;61.07
49973;BME280;65693;49.798;10.968;2023-02-17T06:36:41;98739.94;;;7.62;61.38
49973;BME280;65693;49.798;10.968;2023-02-17T06:39:08;98738.09;;;7.64;61.02
49973;BME280;65693;49.798;10.968;2023-02-17T06:41:34;98739.03;;;7.63;61.09
49973;BME280;65693;49.798;10.968;2023-02-17T06:44:01;98740.88;;;7.61;61.28
49973;BME280;65693;49.798;10.968;2023-02-17T06:46:28;98737.31;;;7.62;61.24
49973;BME280;65693;49.798;10.968;2023-02-17T06:48:55;98738.25;;;7.61;60.86
49973;BME280;65693;49.798;10.968;2023-02-17T06:51:21;98723.28;;;7.62;61.24
49973;BME280;65693;49.798;10.968;2023-02-17T06:53:48;98732.97;;;7.61;60.90
49973;BME280;65693;49.798;10.968;2023-02-17T06:56:14;98729.53;;;7.59;60.91
49973;BME280;65693;49.798;10.968;2023-02-17T06:58:40;98730.41;;;7.60;60.87
49973;BME280;65693;49.798;10.968;2023-02-17T07:01:15;98722.50;;;7.60;60.97
49973;BME280;65693;49.798;10.968;2023-02-17T07:03:43;98730.47;;;7.58;61.05
49973;BME280;65693;49.798;10.968;2023-02-17T07:06:09;98737.44;;;7.59;60.50
49973;BME280;65693;49.798;10.968;2023-02-17T07:08:36;98719.00;;;7.59;60.64
49973;BME280;65693;49.798;10.968;2023-02-17T07:11:03;98723.34;;;7.60;60.60
49973;BME280;65693;49.798;10.968;2023-02-17T07:13:30;98726.03;;;7.59;60.86
49973;BME280;65693;49.798;10.968;2023-02-17T07:15:56;98722.50;;;7.60;60.89
49973;BME280;65693;49.798;10.968;2023-02-17T07:18:23;98735.75;;;7.58;60.43
49973;BME280;65693;49.798;10.968;2023-02-17T07:20:50;98746.28;;;7.58;60.70
49973;BME280;65693;49.798;10.968;2023-02-17T07:23:17;98746.25;;;7.60;60.87
49973;BME280;65693;49.798;10.968;2023-02-17T07:25:44;98742.59;;;7.62;60.89
49973;BME280;65693;49.798;10.968;2023-02-17T07:28:10;98742.59;;;7.62;61.09
49973;BME280;65693;49.798;10.968;2023-02-17T07:30:37;98747.88;;;7.62;61.42
49973;BME280;65693;49.798;10.968;2023-02-17T07:33:04;98743.59;;;7.60;61.45
49973;BME280;65693;49.798;10.968;2023-02-17T07:35:31;98747.94;;;7.61;61.83
49973;BME280;65693;49.798;10.968;2023-02-17T07:37:59;98750.59;;;7.61;61.60
49973;BME280;65693;49.798;10.968;2023-02-17T07:40:27;98761.94;;;7.63;61.81
49973;BME280;65693;49.798;10.968;2023-02-17T07:42:53;98769.84;;;7.63;61.74
49973;BME280;65693;49.798;10.968;2023-02-17T07:45:19;98766.41;;;7.61;61.83
49973;BME280;65693;49.798;10.968;2023-02-17T07:47:46;98776.88;;;7.62;61.65
49973;BME280;65693;49.798;10.968;2023-02-17T07:50:12;98770.81;;;7.60;61.85
49973;BME280;65693;49.798;10.968;2023-02-17T07:52:39;98774.38;;;7.59;61.44
49973;BME280;65693;49.798;10.968;2023-02-17T07:55:07;98772.63;;;7.60;61.58
49973;BME280;65693;49.798;10.968;2023-02-17T07:57:33;98769.97;;;7.60;61.46
49973;BME280;65693;49.798;10.968;2023-02-17T08:00:00;98765.59;;;7.59;61.67
49973;BME280;65693;49.798;10.968;2023-02-17T08:02:26;98772.63;;;7.60;61.22
49973;BME280;65693;49.798;10.968;2023-02-17T08:04:53;98772.53;;;7.61;61.10
49973;BME280;65693;49.798;10.968;2023-02-17T08:07:19;98779.66;;;7.59;61.30
49973;BME280;65693;49.798;10.968;2023-02-17T08:09:46;98787.53;;;7.61;61.29
49973;BME280;65693;49.798;10.968;2023-02-17T08:12:31;98774.38;;;7.59;61.10
49973;BME280;65693;49.798;10.968;2023-02-17T08:15:15;98776.09;;;7.60;61.23
49973;BME280;65693;49.798;10.968;2023-02-17T08:17:42;98770.88;;;7.59;61.54
49973;BME280;65693;49.798;10.968;2023-02-17T08:20:09;98783.97;;;7.62;61.13
49973;BME280;65693;49.798;10.968;2023-02-17T08:22:37;98780.44;;;7.61;61.02
49973;BME280;65693;49.798;10.968;2023-02-17T08:25:04;98784.81;;;7.62;61.38
49973;BME280;65693;49.798;10.968;2023-02-17T08:27:32;98786.59;;;7.62;61.15
49973;BME280;65693;49.798;10.968;2023-02-17T08:29:59;98797.19;;;7.60;61.15
49973;BME280;65693;49.798;10.968;2023-02-17T08:32:25;98792.78;;;7.61;61.06
49973;BME280;65693;49.798;10.968;2023-02-17T08:34:55;98791.88;;;7.62;61.05
49973;BME280;65693;49.798;10.968;2023-02-17T08:37:21;98787.44;;;7.62;61.26
49973;BME280;65693;49.798;10.968;2023-02-17T08:39:48;98793.72;;;7.60;61.22
49973;BME280;65693;49.798;10.968;2023-02-17T08:42:14;98789.34;;;7.59;61.00
49973;BME280;65693;49.798;10.968;2023-02-17T08:44:43;98784.94;;;7.59;61.33
49973;BME280;65693;49.798;10.968;2023-02-17T08:47:09;98795.34;;;7.62;61.04
49973;BME280;65693;49.798;10.968;2023-02-17T08:49:36;98777.94;;;7.58;61.06
49973;BME280;65693;49.798;10.968;2023-02-17T08:52:03;98779.66;;;7.59;60.97
49973;BME280;65693;49.798;10.968;2023-02-17T08:54:29;98777.81;;;7.61;61.13
49973;BME280;65693;49.798;10.968;2023-02-17T08:56:56;98769.09;;;7.59;60.92
49973;BME280;65693;49.798;10.968;2023-02-17T08:59:22;98777.81;;;7.61;60.93
49973;BME280;65693;49.798;10.968;2023-02-17T09:01:50;98777.91;;;7.60;61.27
49973;BME280;65693;49.798;10.968;2023-02-17T09:04:17;98771.69;;;7.61;61.16
49973;BME280;65693;49.798;10.968;2023-02-17T09:06:45;98777.81;;;7.61;60.84
49973;BME280;65693;49.798;10.968;2023-02-17T09:09:16;98787.53;;;7.61;60.92
49973;BME280;65693;49.798;10.968;2023-02-17T09:11:43;98775.16;;;7.61;61.13
49973;BME280;65693;49.798;10.968;2023-02-17T09:14:10;98776.09;;;7.60;61.12
49973;BME280;65693;49.798;10.968;2023-02-17T09:16:37;98761.97;;;7.61;61.09
49973;BME280;65693;49.798;10.968;2023-02-17T09:19:05;98761.19;;;7.59;60.94
49973;BME280;65693;49.798;10.968;2023-02-17T09:21:31;98777.81;;;7.61;61.26
49973;BME280;65693;49.798;10.968;2023-02-17T09:23:58;98769.06;;;7.61;61.26
49973;BME280;65693;49.798;10.968;2023-02-17T09:26:24;98769.91;;;7.61;61.13
49973;BME280;65693;49.798;10.968;2023-02-17T09:28:51;98766.34;;;7.62;61.13
49973;BME280;65693;49.798;10.968;2023-02-17T09:31:20;98769.97;;;7.60;61.01
49973;BME280;65693;49.798;10.968;2023-02-17T09:33:47;98761.13;;;7.61;60.92
49973;BME280;65693;49.798;10.968;2023-02-17T09:36:17;98767.34;;;7.60;60.93
49973;BME280;65693;49.798;10.968;2023-02-17T09:38:45;98764.72;;;7.60;61.05
49973;BME280;65693;49.798;10.968;2023-02-17T09:41:16;98772.53;;;7.61;61.19
49973;BME280;65693;49.798;10.968;2023-02-17T09:43:43;98770.88;;;7.59;61.02
49973;BME280;65693;49.798;10.968;2023-02-17T09:46:14;98765.53;;;7.60;61.02
49973;BME280;65693;49.798;10.968;2023-02-17T09:48:42;98763.84;;;7.59;60.87
49973;BME280;65693;49.798;10.968;2023-02-17T09:51:18;98763.97;;;7.56;61.21
49973;BME280;65693;49.798;10.968;2023-02-17T09:53:51;98756.84;;;7.58;61.20
49973;BME280;65693;49.798;10.968;2023-02-17T09:56:24;98769.16;;;7.58;61.26
49973;BME280;65693;49.798;10.968;2023-02-17T09:58:56;98758.75;;;7.54;60.99
49973;BME280;65693;49.798;10.968;2023-02-17T10:01:28;98762.13;;;7.58;61.13
49973;BME280;65693;49.798;10.968;2023-02-17T10:03:58;98763.97;;;7.56;60.95
49973;BME280;65693;49.798;10.968;2023-02-17T10:06:32;98759.53;;;7.57;61.33
49973;BME280;65693;49.798;10.968;2023-02-17T10:09:03;98762.25;;;7.55;61.15
49973;BME280;65693;49.798;10.968;2023-02-17T10:11:31;98751.63;;;7.57;61.14
49973;BME280;65693;49.798;10.968;2023-02-17T10:14:03;98757.75;;;7.57;61.05
49973;BME280;65693;49.798;10.968;2023-02-17T10:16:35;98756.91;;;7.57;61.11
49973;BME280;65693;49.798;10.968;2023-02-17T10:19:09;98757.75;;;7.57;61.44
49973;BME280;65693;49.798;10.968;2023-02-17T10:21:42;98752.53;;;7.55;61.37
49973;BME280;65693;49.798;10.968;2023-02-17T10:24:10;98751.72;;;7.55;61.37
49973;BME280;65693;49.798;10.968;2023-02-17T10:26:51;98737.59;;;7.56;61.38
49973;BME280;65693;49.798;10.968;2023-02-17T10:29:30;98752.50;;;7.57;61.37
49973;BME280;65693;49.798;10.968;2023-02-17T10:32:05;98740.16;;;7.58;61.18
49973;BME280;65693;49.798;10.968;2023-02-17T10:34:36;98739.34;;;7.55;61.33
49973;BME280;65693;49.798;10.968;2023-02-17T10:37:11;98736.72;;;7.55;61.55
49973;BME280;65693;49.798;10.968;2023-02-17T10:39:45;98742.88;;;7.56;61.21
49973;BME280;65693;49.798;10.968;2023-02-17T10:42:16;98736.72;;;7.55;61.47
49973;BME280;65693;49.798;10.968;2023-02-17T10:44:45;98729.69;;;7.56;61.16
49973;BME280;65693;49.798;10.968;2023-02-17T10:47:13;98726.13;;;7.57;61.66
49973;BME280;65693;49.798;10.968;2023-02-17T10:49:43;98729.53;;;7.59;61.47
49973;BME280;65693;49.798;10.968;2023-02-17T10:52:13;98734.81;;;7.59;61.43
49973;BME280;65693;49.798;10.968;2023-02-17T10:54:44;98731.31;;;7.59;61.36
49973;BME280;65693;49.798;10.968;2023-02-17T10:57:12;98725.97;;;7.60;61.51
49973;BME280;65693;49.798;10.968;2023-02-17T10:59:42;98723.34;;;7.60;61.46
49973;BME280;65693;49.798;10.968;2023-02-17T11:02:17;98721.56;;;7.61;61.45
49973;BME280;65693;49.798;10.968;2023-02-17T11:04:48;98729.53;;;7.59;61.60
49973;BME280;65693;49.798;10.968;2023-02-17T11:07:18;98725.91;;;7.62;61.23
49973;BME280;65693;49.798;10.968;2023-02-17T11:09:50;98718.00;;;7.62;61.61
49973;BME280;65693;49.798;10.968;2023-02-17T11:12:21;98718.94;;;7.61;61.54
49973;BME280;65693;49.798;10.968;2023-02-17T11:14:49;98703.94;;;7.61;61.29
49973;BME280;65693;49.798;10.968;2023-02-17T11:17:20;98710.94;;;7.62;61.76
49973;BME280;65693;49.798;10.968;2023-02-17T11:19:57;98702.19;;;7.62;61.38
49973;BME280;65693;49.798;10.968;2023-02-17T11:22:33;98695.88;;;7.64;61.23
49973;BME280;65693;49.798;10.968;2023-02-17T11:25:04;98704.72;;;7.63;61.41
49973;BME280;65693;49.798;10.968;2023-02-17T11:27:31;98703.91;;;7.63;61.60
49973;BME280;65693;49.798;10.968;2023-02-17T11:30:08;98705.66;;;7.62;61.91
49973;BME280;65693;49.798;10.968;2023-02-17T11:32:35;98704.81;;;7.62;61.33
49973;BME280;65693;49.798;10.968;2023-02-17T11:35:01;98703.91;;;7.63;61.18
49973;BME280;65693;49.798;10.968;2023-02-17T11:37:31;98693.25;;;7.64;61.22
49973;BME280;65693;49.798;10.968;2023-02-17T11:40:21;98688.91;;;7.63;61.40
49973;BME280;65693;49.798;10.968;2023-02-17T11:42:55;98688.91;;;7.63;61.49
49973;BME280;65693;49.798;10.968;2023-02-17T11:45:22;98687.06;;;7.65;61.38
49973;BME280;65693;49.798;10.968;2023-02-17T11:47:57;98686.25;;;7.63;61.35
49973;BME280;65693;49.798;10.968;2023-02-17T11:50:31;98688.84;;;7.65;61.23
49973;BME280;65693;49.798;10.968;2023-02-17T11:53:13;98698.53;;;7.64;61.70
49973;BME280;65693;49.798;10.968;2023-02-17T11:55:52;98688.91;;;7.63;61.34
49973;BME280;65693;49.798;10.968;2023-02-17T11:58:32;98699.47;;;7.63;61.68
49973;BME280;65693;49.798;10.968;2023-02-17T12:01:14;98687.97;;;7.64;61.64
49973;BME280;65693;49.798;10.968;2023-02-17T12:03:54;98692.47;;;7.62;61.92
49973;BME280;65693;49.798;10.968;2023-02-17T12:06:34;98697.69;;;7.64;61.86
49973;BME280;65693;49.798;10.968;2023-02-17T12:09:09;98696.75;;;7.65;61.84
49973;BME280;65693;49.798;10.968;2023-02-17T12:11:44;98693.25;;;7.64;61.52
49973;BME280;65693;49.798;10.968;2023-02-17T12:14:32;98691.50;;;7.65;61.95
49973;BME280;65693;49.798;10.968;2023-02-17T12:17:13;98687.97;;;7.64;61.94
49973;BME280;65693;49.798;10.968;2023-02-17T12:19:48;98689.69;;;7.65;61.48
49973;BME280;65693;49.798;10.968;2023-02-17T12:22:26;98686.22;;;7.65;61.92
49973;BME280;65693;49.798;10.968;2023-02-17T12:25:10;98682.66;;;7.66;61.88
49973;BME280;65693;49.798;10.968;2023-02-17T12:27:49;98687.00;;;7.67;61.67
49973;BME280;65693;49.798;10.968;2023-02-17T12:30:28;98688.75;;;7.66;61.68
49973;BME280;65693;49.798;10.968;2023-02-17T12:33:21;98686.13;;;7.66;61.92
49973;BME280;65693;49.798;10.968;2023-02-17T12:35:54;98688.75;;;7.66;61.86
49973;BME280;65693;49.798;10.968;2023-02-17T12:38:24;98687.00;;;7.67;61.70
49973;BME280;65693;49.798;10.968;2023-02-17T12:40:57;98678.22;;;7.66;61.81
49973;BME280;65693;49.798;10.968;2023-02-17T12:43:31;98675.56;;;7.66;61.88
49973;BME280;65693;49.798;10.968;2023-02-17T12:46:04;98687.84;;;7.67;61.78
49973;BME280;65693;49.798;10.968;2023-02-17T12:48:35;98686.06;;;7.68;61.71
49973;BME280;65693;49.798;10.968;2023-02-17T12:51:06;98668.53;;;7.67;62.35
49973;BME280;65693;49.798;10.968;2023-02-17T12:53:41;98679.91;;;7.67;62.26
49973;BME280;65693;49.798;10.968;2023-02-17T12:56:38;98673.75;;;7.68;62.10
49973;BME280;65693;49.798;10.968;2023-02-17T12:59:13;98674.66;;;7.67;62.19
49973;BME280;65693;49.798;10.968;2023-02-17T13:01:49;98671.16;;;7.67;61.92
49973;BME280;65693;49.798;10.968;2023-02-17T13:04:18;98677.47;;;7.83;65.96
49973;BME280;65693;49.798;10.968;2023-02-17T13:06:50;98661.22;;;7.93;67.97
49973;BME280;65693;49.798;10.968;2023-02-17T13:09:26;98662.94;;;7.94;67.06
49973;BME280;65693;49.798;10.968;2023-02-17T13:12:08;98651.31;;;7.98;69.24